sensor_id;sensor_type;location;lat;lon;timestamp;temperature;humidity
65087;DHT22;52094;51.234;-2.310;2022-10-18T00:00:05;8.00;77.10
65087;DHT22;52094;51.234;-2.310;2022-10-18T00:03:48;8.00;77.00
65087;DHT22;52094;51.234;-2.310;2022-10-18T00:07:30;7.90;77.00
65087;DHT22;52094;51.234;-2.310;2022-10-18T00:11:12;7.90;77.00
65087;DHT22;52094;51.234;-2.310;2022-10-18T00:14:54;7.80;77.00
65087;DHT22;52094;51.234;-2.310;2022-10-18T00:18:36;7.80;77.00
65087;DHT22;52094;51.234;-2.310;2022-10-18T00:22:19;7.70;77.00
65087;DHT22;52094;51.234;-2.310;2022-10-18T00:26:11;7.70;76.70
65087;DHT22;52094;51.234;-2.310;2022-10-18T00:29:54;7.60;77.00
65087;DHT22;52094;51.234;-2.310;2022-10-18T00:33:36;7.50;77.30
65087;DHT22;52094;51.234;-2.310;2022-10-18T00:37:18;7.40;77.10
65087;DHT22;52094;51.234;-2.310;2022-10-18T00:41:01;7.30;77.20
65087;DHT22;52094;51.234;-2.310;2022-10-18T00:48:26;7.30;77.40
65087;DHT22;52094;51.234;-2.310;2022-10-18T00:52:23;7.30;77.50
65087;DHT22;52094;51.234;-2.310;2022-10-18T00:56:07;7.30;78.00
65087;DHT22;52094;51.234;-2.310;2022-10-18T00:59:49;7.20;77.70
65087;DHT22;52094;51.234;-2.310;2022-10-18T01:03:31;7.20;77.80
65087;DHT22;52094;51.234;-2.310;2022-10-18T01:07:43;7.30;77.80
65087;DHT22;52094;51.234;-2.310;2022-10-18T01:15:27;7.30;78.30
65087;DHT22;52094;51.234;-2.310;2022-10-18T01:24:00;7.30;79.10
65087;DHT22;52094;51.234;-2.310;2022-10-18T01:31:33;7.20;78.00
65087;DHT22;52094;51.234;-2.310;2022-10-18T01:35:33;7.20;78.50
65087;DHT22;52094;51.234;-2.310;2022-10-18T01:39:30;7.30;79.20
65087;DHT22;52094;51.234;-2.310;2022-10-18T01:43:15;7.40;79.20
65087;DHT22;52094;51.234;-2.310;2022-10-18T01:46:59;7.60;78.50
65087;DHT22;52094;51.234;-2.310;2022-10-18T01:50:41;7.60;78.40
65087;DHT22;52094;51.234;-2.310;2022-10-18T01:54:36;7.60;78.30
65087;DHT22;52094;51.234;-2.310;2022-10-18T01:58:40;7.70;78.50
65087;DHT22;52094;51.234;-2.310;2022-10-18T02:02:55;7.70;79.00
65087;DHT22;52094;51.234;-2.310;2022-10-18T02:06:41;7.70;79.30
65087;DHT22;52094;51.234;-2.310;2022-10-18T02:10:43;7.70;78.30
65087;DHT22;52094;51.234;-2.310;2022-10-18T02:14:27;7.70;78.50
65087;DHT22;52094;51.234;-2.310;2022-10-18T02:18:23;7.70;78.30
65087;DHT22;52094;51.234;-2.310;2022-10-18T02:22:07;7.70;78.70
65087;DHT22;52094;51.234;-2.310;2022-10-18T02:25:52;7.70;78.30
65087;DHT22;52094;51.234;-2.310;2022-10-18T02:29:34;7.70;78.50
65087;DHT22;52094;51.234;-2.310;2022-10-18T02:33:31;7.80;78.50
65087;DHT22;52094;51.234;-2.310;2022-10-18T02:37:16;7.70;78.50
65087;DHT22;52094;51.234;-2.310;2022-10-18T02:40:58;7.80;78.40
65087;DHT22;52094;51.234;-2.310;2022-10-18T02:44:41;7.80;78.50
65087;DHT22;52094;51.234;-2.310;2022-10-18T02:48:23;7.80;78.50
65087;DHT22;52094;51.234;-2.310;2022-10-18T02:52:05;7.80;78.60
65087;DHT22;52094;51.234;-2.310;2022-10-18T02:55:47;7.70;78.70
65087;DHT22;52094;51.234;-2.310;2022-10-18T02:59:29;7.80;78.70
65087;DHT22;52094;51.234;-2.310;2022-10-18T03:03:11;7.70;78.60
65087;DHT22;52094;51.234;-2.310;2022-10-18T03:06:54;7.70;78.70
65087;DHT22;52094;51.234;-2.310;2022-10-18T03:10:36;7.70;78.70
65087;DHT22;52094;51.234;-2.310;2022-10-18T03:14:18;7.70;78.70
65087;DHT22;52094;51.234;-2.310;2022-10-18T03:18:00;7.70;78.80
65087;DHT22;52094;51.234;-2.310;2022-10-18T03:21:42;7.70;78.80
65087;DHT22;52094;51.234;-2.310;2022-10-18T03:25:24;7.70;78.90
65087;DHT22;52094;51.234;-2.310;2022-10-18T03:29:07;7.70;78.90
65087;DHT22;52094;51.234;-2.310;2022-10-18T03:32:50;7.70;78.90
65087;DHT22;52094;51.234;-2.310;2022-10-18T03:36:32;7.70;79.00
65087;DHT22;52094;51.234;-2.310;2022-10-18T04:31:30;8.00;79.30
65087;DHT22;52094;51.234;-2.310;2022-10-18T04:35:12;7.90;79.10
65087;DHT22;52094;51.234;-2.310;2022-10-18T04:38:54;7.90;79.10
65087;DHT22;52094;51.234;-2.310;2022-10-18T04:42:36;7.90;79.30
65087;DHT22;52094;51.234;-2.310;2022-10-18T04:46:18;7.90;79.30
65087;DHT22;52094;51.234;-2.310;2022-10-18T04:50:01;7.90;79.40
65087;DHT22;52094;51.234;-2.310;2022-10-18T04:53:43;7.90;79.40
65087;DHT22;52094;51.234;-2.310;2022-10-18T04:57:25;7.90;79.50
65087;DHT22;52094;51.234;-2.310;2022-10-18T05:01:07;8.00;79.60
65087;DHT22;52094;51.234;-2.310;2022-10-18T05:04:52;8.00;79.70
65087;DHT22;52094;51.234;-2.310;2022-10-18T05:08:35;8.10;79.70
65087;DHT22;52094;51.234;-2.310;2022-10-18T05:12:17;8.20;79.60
65087;DHT22;52094;51.234;-2.310;2022-10-18T05:15:59;8.20;79.50
65087;DHT22;52094;51.234;-2.310;2022-10-18T05:19:41;8.20;79.40
65087;DHT22;52094;51.234;-2.310;2022-10-18T05:23:24;8.20;79.30
65087;DHT22;52094;51.234;-2.310;2022-10-18T05:27:06;8.10;79.40
65087;DHT22;52094;51.234;-2.310;2022-10-18T05:30:48;8.10;79.40
65087;DHT22;52094;51.234;-2.310;2022-10-18T05:34:30;8.00;79.30
65087;DHT22;52094;51.234;-2.310;2022-10-18T05:38:13;8.00;79.30
65087;DHT22;52094;51.234;-2.310;2022-10-18T05:41:55;7.90;79.30
65087;DHT22;52094;51.234;-2.310;2022-10-18T05:45:37;7.90;79.50
65087;DHT22;52094;51.234;-2.310;2022-10-18T05:49:19;7.80;79.50
65087;DHT22;52094;51.234;-2.310;2022-10-18T05:53:01;7.80;79.60
65087;DHT22;52094;51.234;-2.310;2022-10-18T05:56:53;7.80;79.60
65087;DHT22;52094;51.234;-2.310;2022-10-18T06:00:35;7.80;79.70
65087;DHT22;52094;51.234;-2.310;2022-10-18T06:04:17;7.90;79.70
65087;DHT22;52094;51.234;-2.310;2022-10-18T06:07:59;7.80;79.70
65087;DHT22;52094;51.234;-2.310;2022-10-18T06:11:41;7.80;79.60
65087;DHT22;52094;51.234;-2.310;2022-10-18T06:15:26;7.80;79.80
65087;DHT22;52094;51.234;-2.310;2022-10-18T06:19:08;7.70;79.80
65087;DHT22;52094;51.234;-2.310;2022-10-18T06:22:53;7.70;79.90
65087;DHT22;52094;51.234;-2.310;2022-10-18T06:26:35;7.80;79.80
65087;DHT22;52094;51.234;-2.310;2022-10-18T06:30:18;7.80;79.80
65087;DHT22;52094;51.234;-2.310;2022-10-18T06:34:00;7.80;79.80
65087;DHT22;52094;51.234;-2.310;2022-10-18T06:37:43;7.80;79.80
65087;DHT22;52094;51.234;-2.310;2022-10-18T06:41:25;7.80;79.90
65087;DHT22;52094;51.234;-2.310;2022-10-18T06:45:07;7.80;79.90
65087;DHT22;52094;51.234;-2.310;2022-10-18T06:48:51;7.80;79.90
65087;DHT22;52094;51.234;-2.310;2022-10-18T06:52:33;7.80;79.80
65087;DHT22;52094;51.234;-2.310;2022-10-18T06:56:15;7.80;79.90
65087;DHT22;52094;51.234;-2.310;2022-10-18T06:59:58;7.80;79.90
65087;DHT22;52094;51.234;-2.310;2022-10-18T07:03:40;7.80;79.80
65087;DHT22;52094;51.234;-2.310;2022-10-18T07:07:22;7.80;79.80
65087;DHT22;52094;51.234;-2.310;2022-10-18T07:11:05;7.80;79.80
65087;DHT22;52094;51.234;-2.310;2022-10-18T07:14:48;7.80;79.90
65087;DHT22;52094;51.234;-2.310;2022-10-18T07:18:32;7.80;79.90
65087;DHT22;52094;51.234;-2.310;2022-10-18T07:22:15;7.80;79.80
65087;DHT22;52094;51.234;-2.310;2022-10-18T07:25:57;7.80;79.80
65087;DHT22;52094;51.234;-2.310;2022-10-18T07:29:39;7.80;79.90
65087;DHT22;52094;51.234;-2.310;2022-10-18T07:33:22;7.90;80.00
65087;DHT22;52094;51.234;-2.310;2022-10-18T07:37:05;7.90;80.00
65087;DHT22;52094;51.234;-2.310;2022-10-18T07:40:47;8.00;80.00
65087;DHT22;52094;51.234;-2.310;2022-10-18T07:44:29;8.20;80.00
65087;DHT22;52094;51.234;-2.310;2022-10-18T07:48:12;8.20;79.90
65087;DHT22;52094;51.234;-2.310;2022-10-18T07:51:55;8.30;79.80
65087;DHT22;52094;51.234;-2.310;2022-10-18T07:55:37;8.50;80.00
65087;DHT22;52094;51.234;-2.310;2022-10-18T07:59:20;8.70;80.20
65087;DHT22;52094;51.234;-2.310;2022-10-18T08:03:02;8.80;80.40
65087;DHT22;52094;51.234;-2.310;2022-10-18T08:06:47;9.00;80.00
65087;DHT22;52094;51.234;-2.310;2022-10-18T08:10:29;9.20;79.60
65087;DHT22;52094;51.234;-2.310;2022-10-18T08:14:12;9.20;79.40
65087;DHT22;52094;51.234;-2.310;2022-10-18T08:17:54;9.30;79.30
65087;DHT22;52094;51.234;-2.310;2022-10-18T08:21:36;9.40;79.50
65087;DHT22;52094;51.234;-2.310;2022-10-18T08:25:19;9.70;79.80
65087;DHT22;52094;51.234;-2.310;2022-10-18T08:29:01;9.90;79.80
65087;DHT22;52094;51.234;-2.310;2022-10-18T08:33:02;10.10;79.50
65087;DHT22;52094;51.234;-2.310;2022-10-18T08:36:44;10.30;78.80
65087;DHT22;52094;51.234;-2.310;2022-10-18T08:40:27;10.50;79.20
65087;DHT22;52094;51.234;-2.310;2022-10-18T08:44:22;10.70;79.30
65087;DHT22;52094;51.234;-2.310;2022-10-18T08:48:06;10.90;79.00
65087;DHT22;52094;51.234;-2.310;2022-10-18T08:51:51;11.30;79.10
65087;DHT22;52094;51.234;-2.310;2022-10-18T08:56:01;11.60;78.30
65087;DHT22;52094;51.234;-2.310;2022-10-18T08:59:45;11.70;76.50
65087;DHT22;52094;51.234;-2.310;2022-10-18T09:16:02;12.40;75.10
65087;DHT22;52094;51.234;-2.310;2022-10-18T09:23:46;12.80;76.80
65087;DHT22;52094;51.234;-2.310;2022-10-18T09:27:41;13.20;77.20
65087;DHT22;52094;51.234;-2.310;2022-10-18T09:35:28;14.00;76.70
65087;DHT22;52094;51.234;-2.310;2022-10-18T09:39:15;14.40;75.60
65087;DHT22;52094;51.234;-2.310;2022-10-18T09:43:11;14.90;76.60
65087;DHT22;52094;51.234;-2.310;2022-10-18T09:47:00;15.50;74.30
65087;DHT22;52094;51.234;-2.310;2022-10-18T09:55:14;16.80;73.80
65087;DHT22;52094;51.234;-2.310;2022-10-18T09:58:59;17.20;70.90
65087;DHT22;52094;51.234;-2.310;2022-10-18T10:06:55;17.00;69.70
65087;DHT22;52094;51.234;-2.310;2022-10-18T10:10:57;17.20;71.60
65087;DHT22;52094;51.234;-2.310;2022-10-18T10:14:43;17.30;69.30
65087;DHT22;52094;51.234;-2.310;2022-10-18T10:18:31;18.00;72.70
65087;DHT22;52094;51.234;-2.310;2022-10-18T10:22:14;19.20;71.20
65087;DHT22;52094;51.234;-2.310;2022-10-18T10:26:03;20.20;69.50
65087;DHT22;52094;51.234;-2.310;2022-10-18T10:33:36;21.20;67.20
65087;DHT22;52094;51.234;-2.310;2022-10-18T10:37:30;22.20;62.00
65087;DHT22;52094;51.234;-2.310;2022-10-18T10:41:23;23.30;61.00
65087;DHT22;52094;51.234;-2.310;2022-10-18T10:45:11;23.60;57.10
65087;DHT22;52094;51.234;-2.310;2022-10-18T10:48:56;24.00;58.90
65087;DHT22;52094;51.234;-2.310;2022-10-18T10:52:59;25.20;61.90
65087;DHT22;52094;51.234;-2.310;2022-10-18T10:57:05;26.50;59.00
65087;DHT22;52094;51.234;-2.310;2022-10-18T11:00:52;27.70;50.60
65087;DHT22;52094;51.234;-2.310;2022-10-18T11:04:34;28.60;55.50
65087;DHT22;52094;51.234;-2.310;2022-10-18T11:08:22;29.20;53.30
65087;DHT22;52094;51.234;-2.310;2022-10-18T11:16:13;29.70;46.00
65087;DHT22;52094;51.234;-2.310;2022-10-18T11:20:14;30.00;44.80
65087;DHT22;52094;51.234;-2.310;2022-10-18T11:24:01;30.00;44.50
65087;DHT22;52094;51.234;-2.310;2022-10-18T11:28:15;30.20;48.90
65087;DHT22;52094;51.234;-2.310;2022-10-18T11:35:56;30.50;48.70
65087;DHT22;52094;51.234;-2.310;2022-10-18T11:44:30;30.70;42.80
65087;DHT22;52094;51.234;-2.310;2022-10-18T11:48:58;30.60;43.20
65087;DHT22;52094;51.234;-2.310;2022-10-18T11:56:43;31.20;41.30
65087;DHT22;52094;51.234;-2.310;2022-10-18T12:04:32;31.10;39.50
65087;DHT22;52094;51.234;-2.310;2022-10-18T12:08:27;30.80;40.20
65087;DHT22;52094;51.234;-2.310;2022-10-18T12:12:30;30.90;43.00
65087;DHT22;52094;51.234;-2.310;2022-10-18T12:16:14;30.70;40.90
65087;DHT22;52094;51.234;-2.310;2022-10-18T12:20:04;31.00;44.60
65087;DHT22;52094;51.234;-2.310;2022-10-18T12:24:03;31.10;43.10
65087;DHT22;52094;51.234;-2.310;2022-10-18T12:27:56;31.10;40.50
65087;DHT22;52094;51.234;-2.310;2022-10-18T12:31:42;31.10;41.90
65087;DHT22;52094;51.234;-2.310;2022-10-18T12:35:33;31.00;43.70
65087;DHT22;52094;51.234;-2.310;2022-10-18T12:39:27;30.50;42.30
65087;DHT22;52094;51.234;-2.310;2022-10-18T12:43:30;29.60;41.40
65087;DHT22;52094;51.234;-2.310;2022-10-18T12:47:22;28.80;43.10
65087;DHT22;52094;51.234;-2.310;2022-10-18T13:10:39;23.90;46.30
65087;DHT22;52094;51.234;-2.310;2022-10-18T13:14:44;22.50;49.40
65087;DHT22;52094;51.234;-2.310;2022-10-18T13:26:38;20.20;54.20
65087;DHT22;52094;51.234;-2.310;2022-10-18T13:30:40;20.00;55.20
65087;DHT22;52094;51.234;-2.310;2022-10-18T13:34:30;19.80;56.60
65087;DHT22;52094;51.234;-2.310;2022-10-18T13:42:31;19.60;57.90
65087;DHT22;52094;51.234;-2.310;2022-10-18T13:46:14;19.50;57.50
65087;DHT22;52094;51.234;-2.310;2022-10-18T13:50:02;19.50;57.70
65087;DHT22;52094;51.234;-2.310;2022-10-18T13:58:02;19.50;58.30
65087;DHT22;52094;51.234;-2.310;2022-10-18T14:02:11;19.40;58.50
65087;DHT22;52094;51.234;-2.310;2022-10-18T14:06:21;19.40;58.40
65087;DHT22;52094;51.234;-2.310;2022-10-18T14:10:10;19.40;58.90
65087;DHT22;52094;51.234;-2.310;2022-10-18T14:17:53;19.50;58.70
65087;DHT22;52094;51.234;-2.310;2022-10-18T14:21:44;19.50;58.30
65087;DHT22;52094;51.234;-2.310;2022-10-18T14:29:17;19.10;58.50
65087;DHT22;52094;51.234;-2.310;2022-10-18T14:33:00;19.00;59.40
65087;DHT22;52094;51.234;-2.310;2022-10-18T14:36:45;18.90;59.10
65087;DHT22;52094;51.234;-2.310;2022-10-18T14:40:39;18.80;59.60
65087;DHT22;52094;51.234;-2.310;2022-10-18T14:44:25;18.70;60.20
65087;DHT22;52094;51.234;-2.310;2022-10-18T14:48:21;18.70;60.10
65087;DHT22;52094;51.234;-2.310;2022-10-18T14:52:04;18.70;61.10
65087;DHT22;52094;51.234;-2.310;2022-10-18T14:55:56;18.70;60.70
65087;DHT22;52094;51.234;-2.310;2022-10-18T14:59:46;18.70;60.30
65087;DHT22;52094;51.234;-2.310;2022-10-18T15:03:34;18.70;60.10
65087;DHT22;52094;51.234;-2.310;2022-10-18T15:07:17;18.70;60.20
65087;DHT22;52094;51.234;-2.310;2022-10-18T15:10:59;18.60;60.10
65087;DHT22;52094;51.234;-2.310;2022-10-18T15:14:42;18.50;60.50
65087;DHT22;52094;51.234;-2.310;2022-10-18T15:18:26;18.50;60.40
65087;DHT22;52094;51.234;-2.310;2022-10-18T15:22:09;18.40;60.80
65087;DHT22;52094;51.234;-2.310;2022-10-18T15:26:15;18.30;60.90
65087;DHT22;52094;51.234;-2.310;2022-10-18T15:30:13;18.30;61.00
65087;DHT22;52094;51.234;-2.310;2022-10-18T15:34:10;18.30;61.30
65087;DHT22;52094;51.234;-2.310;2022-10-18T15:38:39;18.30;61.80
65087;DHT22;52094;51.234;-2.310;2022-10-18T15:42:03;18.20;61.10
65087;DHT22;52094;51.234;-2.310;2022-10-18T15:45:45;18.20;61.40
65087;DHT22;52094;51.234;-2.310;2022-10-18T15:57:23;18.00;62.40
65087;DHT22;52094;51.234;-2.310;2022-10-18T16:01:22;17.90;61.80
65087;DHT22;52094;51.234;-2.310;2022-10-18T16:05:05;17.90;62.20
65087;DHT22;52094;51.234;-2.310;2022-10-18T16:08:49;17.80;61.90
65087;DHT22;52094;51.234;-2.310;2022-10-18T16:12:31;17.70;62.20
65087;DHT22;52094;51.234;-2.310;2022-10-18T16:16:24;17.70;62.50
65087;DHT22;52094;51.234;-2.310;2022-10-18T16:20:19;17.60;63.50
65087;DHT22;52094;51.234;-2.310;2022-10-18T16:24:05;17.50;63.60
65087;DHT22;52094;51.234;-2.310;2022-10-18T16:27:47;17.50;62.80
65087;DHT22;52094;51.234;-2.310;2022-10-18T16:31:32;17.30;63.10
65087;DHT22;52094;51.234;-2.310;2022-10-18T16:35:14;17.20;63.30
65087;DHT22;52094;51.234;-2.310;2022-10-18T16:39:02;17.20;63.50
65087;DHT22;52094;51.234;-2.310;2022-10-18T16:42:45;17.00;63.50
65087;DHT22;52094;51.234;-2.310;2022-10-18T16:46:29;16.90;63.90
65087;DHT22;52094;51.234;-2.310;2022-10-18T16:50:16;16.80;63.70
65087;DHT22;52094;51.234;-2.310;2022-10-18T16:53:59;16.80;64.70
65087;DHT22;52094;51.234;-2.310;2022-10-18T16:57:42;16.70;64.30
65087;DHT22;52094;51.234;-2.310;2022-10-18T17:01:25;16.70;64.40
65087;DHT22;52094;51.234;-2.310;2022-10-18T17:05:07;16.60;64.60
65087;DHT22;52094;51.234;-2.310;2022-10-18T17:08:51;16.60;64.60
65087;DHT22;52094;51.234;-2.310;2022-10-18T17:12:34;16.50;64.60
65087;DHT22;52094;51.234;-2.310;2022-10-18T17:16:30;16.50;64.80
65087;DHT22;52094;51.234;-2.310;2022-10-18T17:20:19;16.30;66.10
65087;DHT22;52094;51.234;-2.310;2022-10-18T17:24:02;16.20;65.30
65087;DHT22;52094;51.234;-2.310;2022-10-18T17:27:46;16.20;65.00
65087;DHT22;52094;51.234;-2.310;2022-10-18T17:31:30;16.10;64.90
65087;DHT22;52094;51.234;-2.310;2022-10-18T17:35:12;15.90;65.10
65087;DHT22;52094;51.234;-2.310;2022-10-18T17:38:55;15.90;65.30
65087;DHT22;52094;51.234;-2.310;2022-10-18T17:42:37;15.80;65.30
65087;DHT22;52094;51.234;-2.310;2022-10-18T17:46:19;15.80;65.60
65087;DHT22;52094;51.234;-2.310;2022-10-18T17:50:01;15.70;65.70
65087;DHT22;52094;51.234;-2.310;2022-10-18T17:53:43;15.70;65.80
65087;DHT22;52094;51.234;-2.310;2022-10-18T17:57:25;15.70;65.80
65087;DHT22;52094;51.234;-2.310;2022-10-18T18:01:13;15.70;66.00
65087;DHT22;52094;51.234;-2.310;2022-10-18T18:04:55;15.70;66.20
65087;DHT22;52094;51.234;-2.310;2022-10-18T18:08:38;15.60;66.10
65087;DHT22;52094;51.234;-2.310;2022-10-18T18:12:20;15.60;66.30
65087;DHT22;52094;51.234;-2.310;2022-10-18T18:16:31;15.60;66.40
65087;DHT22;52094;51.234;-2.310;2022-10-18T18:20:14;15.60;67.60
65087;DHT22;52094;51.234;-2.310;2022-10-18T18:23:56;15.70;66.60
65087;DHT22;52094;51.234;-2.310;2022-10-18T18:27:38;15.70;66.50
65087;DHT22;52094;51.234;-2.310;2022-10-18T18:31:22;15.70;66.40
65087;DHT22;52094;51.234;-2.310;2022-10-18T18:35:05;15.60;66.50
65087;DHT22;52094;51.234;-2.310;2022-10-18T18:38:49;15.60;66.50
65087;DHT22;52094;51.234;-2.310;2022-10-18T18:42:36;15.60;66.50
65087;DHT22;52094;51.234;-2.310;2022-10-18T18:46:18;15.50;66.40
65087;DHT22;52094;51.234;-2.310;2022-10-18T18:50:01;15.40;66.40
65087;DHT22;52094;51.234;-2.310;2022-10-18T18:53:46;15.40;66.60
65087;DHT22;52094;51.234;-2.310;2022-10-18T18:57:29;15.30;67.60
65087;DHT22;52094;51.234;-2.310;2022-10-18T19:01:20;15.20;67.40
65087;DHT22;52094;51.234;-2.310;2022-10-18T19:05:03;15.20;68.90
65087;DHT22;52094;51.234;-2.310;2022-10-18T19:08:46;15.20;68.00
65087;DHT22;52094;51.234;-2.310;2022-10-18T19:12:28;15.20;68.00
65087;DHT22;52094;51.234;-2.310;2022-10-18T19:16:20;15.30;68.50
65087;DHT22;52094;51.234;-2.310;2022-10-18T19:20:03;15.30;68.90
65087;DHT22;52094;51.234;-2.310;2022-10-18T19:23:47;15.30;68.10
65087;DHT22;52094;51.234;-2.310;2022-10-18T19:27:29;15.20;68.10
65087;DHT22;52094;51.234;-2.310;2022-10-18T19:31:11;15.30;68.20
65087;DHT22;52094;51.234;-2.310;2022-10-18T19:34:53;15.20;68.50
65087;DHT22;52094;51.234;-2.310;2022-10-18T19:38:36;15.20;68.60
65087;DHT22;52094;51.234;-2.310;2022-10-18T19:42:18;15.20;69.00
65087;DHT22;52094;51.234;-2.310;2022-10-18T19:46:06;15.20;68.80
65087;DHT22;52094;51.234;-2.310;2022-10-18T19:49:48;15.10;69.10
65087;DHT22;52094;51.234;-2.310;2022-10-18T19:53:32;15.10;69.20
65087;DHT22;52094;51.234;-2.310;2022-10-18T19:57:14;15.10;69.20
65087;DHT22;52094;51.234;-2.310;2022-10-18T20:00:57;15.00;69.80
65087;DHT22;52094;51.234;-2.310;2022-10-18T20:04:41;15.00;69.50
65087;DHT22;52094;51.234;-2.310;2022-10-18T20:08:23;14.90;71.10
65087;DHT22;52094;51.234;-2.310;2022-10-18T20:12:05;14.90;70.50
65087;DHT22;52094;51.234;-2.310;2022-10-18T20:15:49;14.90;70.60
65087;DHT22;52094;51.234;-2.310;2022-10-18T20:19:31;14.90;70.70
65087;DHT22;52094;51.234;-2.310;2022-10-18T20:23:15;14.90;71.20
65087;DHT22;52094;51.234;-2.310;2022-10-18T20:26:58;14.90;70.60
65087;DHT22;52094;51.234;-2.310;2022-10-18T20:30:40;14.90;71.60
65087;DHT22;52094;51.234;-2.310;2022-10-18T20:34:22;14.90;71.10
65087;DHT22;52094;51.234;-2.310;2022-10-18T20:38:16;14.90;71.00
65087;DHT22;52094;51.234;-2.310;2022-10-18T20:41:58;15.00;71.00
65087;DHT22;52094;51.234;-2.310;2022-10-18T20:45:40;15.00;71.50
65087;DHT22;52094;51.234;-2.310;2022-10-18T20:49:23;15.00;71.40
65087;DHT22;52094;51.234;-2.310;2022-10-18T20:53:05;15.00;73.00
65087;DHT22;52094;51.234;-2.310;2022-10-18T20:56:49;15.00;71.50
65087;DHT22;52094;51.234;-2.310;2022-10-18T21:00:32;15.00;71.60
65087;DHT22;52094;51.234;-2.310;2022-10-18T21:04:15;15.00;71.90
65087;DHT22;52094;51.234;-2.310;2022-10-18T21:07:57;15.00;71.90
65087;DHT22;52094;51.234;-2.310;2022-10-18T21:11:42;15.00;72.30
65087;DHT22;52094;51.234;-2.310;2022-10-18T21:15:25;15.00;72.30
65087;DHT22;52094;51.234;-2.310;2022-10-18T21:19:15;15.00;72.50
65087;DHT22;52094;51.234;-2.310;2022-10-18T21:22:58;15.00;72.40
65087;DHT22;52094;51.234;-2.310;2022-10-18T21:26:40;15.00;73.70
65087;DHT22;52094;51.234;-2.310;2022-10-18T21:30:22;15.00;71.90
65087;DHT22;52094;51.234;-2.310;2022-10-18T21:34:07;15.00;72.40
65087;DHT22;52094;51.234;-2.310;2022-10-18T21:37:53;15.00;71.90
65087;DHT22;52094;51.234;-2.310;2022-10-18T21:41:35;15.00;71.90
65087;DHT22;52094;51.234;-2.310;2022-10-18T21:45:18;14.90;72.00
65087;DHT22;52094;51.234;-2.310;2022-10-18T21:49:00;15.00;72.00
65087;DHT22;52094;51.234;-2.310;2022-10-18T21:52:42;15.00;72.30
65087;DHT22;52094;51.234;-2.310;2022-10-18T21:56:29;15.10;71.90
65087;DHT22;52094;51.234;-2.310;2022-10-18T22:00:12;15.00;72.00
65087;DHT22;52094;51.234;-2.310;2022-10-18T22:03:56;15.00;71.80
65087;DHT22;52094;51.234;-2.310;2022-10-18T22:07:39;15.00;71.90
65087;DHT22;52094;51.234;-2.310;2022-10-18T22:11:24;15.00;72.10
65087;DHT22;52094;51.234;-2.310;2022-10-18T22:15:06;15.00;72.00
65087;DHT22;52094;51.234;-2.310;2022-10-18T22:18:51;15.00;72.20
65087;DHT22;52094;51.234;-2.310;2022-10-18T22:22:33;14.90;72.60
65087;DHT22;52094;51.234;-2.310;2022-10-18T22:26:17;15.00;72.20
65087;DHT22;52094;51.234;-2.310;2022-10-18T22:29:59;14.90;72.00
65087;DHT22;52094;51.234;-2.310;2022-10-18T22:33:42;14.90;72.60
65087;DHT22;52094;51.234;-2.310;2022-10-18T22:37:24;14.80;72.70
65087;DHT22;52094;51.234;-2.310;2022-10-18T22:41:07;14.80;73.50
65087;DHT22;52094;51.234;-2.310;2022-10-18T22:44:50;14.80;73.60
65087;DHT22;52094;51.234;-2.310;2022-10-18T22:48:33;14.70;73.70
65087;DHT22;52094;51.234;-2.310;2022-10-18T22:52:15;14.70;73.40
65087;DHT22;52094;51.234;-2.310;2022-10-18T22:55:57;14.70;73.60
65087;DHT22;52094;51.234;-2.310;2022-10-18T22:59:39;14.70;73.90
65087;DHT22;52094;51.234;-2.310;2022-10-18T23:03:21;14.70;73.50
65087;DHT22;52094;51.234;-2.310;2022-10-18T23:07:04;14.70;73.70
65087;DHT22;52094;51.234;-2.310;2022-10-18T23:10:46;14.70;73.40
65087;DHT22;52094;51.234;-2.310;2022-10-18T23:14:28;14.70;73.50
65087;DHT22;52094;51.234;-2.310;2022-10-18T23:18:10;14.60;73.40
65087;DHT22;52094;51.234;-2.310;2022-10-18T23:21:52;14.60;73.60
65087;DHT22;52094;51.234;-2.310;2022-10-18T23:25:35;14.60;73.60
65087;DHT22;52094;51.234;-2.310;2022-10-18T23:29:17;14.60;73.80
65087;DHT22;52094;51.234;-2.310;2022-10-18T23:33:00;14.60;73.70
65087;DHT22;52094;51.234;-2.310;2022-10-18T23:36:42;14.60;73.80
65087;DHT22;52094;51.234;-2.310;2022-10-18T23:40:29;14.50;73.60
65087;DHT22;52094;51.234;-2.310;2022-10-18T23:44:11;14.50;74.20
65087;DHT22;52094;51.234;-2.310;2022-10-18T23:47:53;14.50;75.30
65087;DHT22;52094;51.234;-2.310;2022-10-18T23:51:36;14.40;75.80
65087;DHT22;52094;51.234;-2.310;2022-10-18T23:55:18;14.40;74.30
65087;DHT22;52094;51.234;-2.310;2022-10-18T23:59:00;14.40;74.50
